createdAt,value
2022-10-05T00:01:30.594Z,11.39
2022-10-05T00:04:33.617Z,11.45
2022-10-05T00:07:36.399Z,11.48
2022-10-05T00:10:41.583Z,11.48
2022-10-05T00:13:44.458Z,11.49
2022-10-05T00:16:48.413Z,11.48
2022-10-05T00:19:54.195Z,11.53
2022-10-05T00:23:01.092Z,11.56
2022-10-05T00:26:14.707Z,11.57
2022-10-05T00:29:23.883Z,11.55
2022-10-05T00:32:27.263Z,11.58
2022-10-05T00:35:30.965Z,11.54
2022-10-05T00:38:33.767Z,11.42
2022-10-05T00:42:00.943Z,11.35
2022-10-05T00:45:09.252Z,11.35
2022-10-05T00:48:39.289Z,11.36
2022-10-05T00:51:50.148Z,11.35
2022-10-05T00:55:07.961Z,11.36
2022-10-05T00:58:29.791Z,11.39
2022-10-05T01:01:40.191Z,11.37
2022-10-05T01:04:54.469Z,11.37
2022-10-05T01:08:16.371Z,11.43
2022-10-05T01:11:38.808Z,11.30
2022-10-05T01:14:56.494Z,11.26
2022-10-05T01:18:20.543Z,11.16
2022-10-05T01:21:26.223Z,11.20
2022-10-05T01:25:02.936Z,11.25
2022-10-05T01:28:16.436Z,11.28
2022-10-05T01:31:26.594Z,11.29
2022-10-05T01:35:14.560Z,11.27
2022-10-05T01:38:24.196Z,11.19
2022-10-05T01:41:52.903Z,11.17
2022-10-05T01:45:01.543Z,11.19
2022-10-05T01:48:04.314Z,11.30
2022-10-05T01:51:30.994Z,11.16
2022-10-05T01:55:03.477Z,11.12
2022-10-05T01:58:08.673Z,11.21
2022-10-05T02:01:36.514Z,11.28
2022-10-05T02:05:01.341Z,11.27
2022-10-05T02:08:09.927Z,11.26
2022-10-05T02:11:17.718Z,11.31
2022-10-05T02:14:25.443Z,11.36
2022-10-05T02:17:38.911Z,11.32
2022-10-05T02:20:43.002Z,11.38
2022-10-05T02:23:48.334Z,11.42
2022-10-05T02:26:53.508Z,11.46
2022-10-05T02:30:01.942Z,11.41
2022-10-05T02:33:10.505Z,11.40
2022-10-05T02:36:18.023Z,11.41
2022-10-05T02:39:35.353Z,11.37
2022-10-05T02:42:43.848Z,11.38
2022-10-05T02:46:11.880Z,11.40
2022-10-05T02:49:15.589Z,11.38
2022-10-05T02:52:34.077Z,11.42
2022-10-05T02:55:51.153Z,11.46
2022-10-05T02:59:06.197Z,11.46
2022-10-05T03:02:14.753Z,11.45
2022-10-05T03:05:24.009Z,11.49
2022-10-05T03:08:45.043Z,11.43
2022-10-05T03:12:05.182Z,11.38
2022-10-05T03:15:21.588Z,11.40
2022-10-05T03:19:06.864Z,11.46
2022-10-05T03:22:31.762Z,11.44
2022-10-05T03:25:59.484Z,11.48
2022-10-05T03:29:08.266Z,11.49
2022-10-05T03:32:32.327Z,11.47
2022-10-05T03:35:59.008Z,11.43
2022-10-05T03:39:26.966Z,11.38
2022-10-05T03:43:00.181Z,11.32
2022-10-05T03:46:37.845Z,11.23
2022-10-05T03:49:59.548Z,11.25
2022-10-05T03:53:04.153Z,11.23
2022-10-05T03:56:20.375Z,11.29
2022-10-05T03:59:42.249Z,11.39
2022-10-05T04:02:55.998Z,11.40
2022-10-05T04:06:07.412Z,11.33
2022-10-05T04:09:18.469Z,11.27
2022-10-05T04:12:44.756Z,11.23
2022-10-05T04:16:13.995Z,11.30
2022-10-05T04:19:35.301Z,11.22
2022-10-05T04:22:53.627Z,11.20
2022-10-05T04:26:07.854Z,11.13
2022-10-05T04:29:31.715Z,11.10
2022-10-05T04:32:55.519Z,11.04
2022-10-05T04:36:11.405Z,11.01
2022-10-05T04:39:28.303Z,11.03
2022-10-05T04:42:38.160Z,11.04
2022-10-05T04:45:59.955Z,11.00
2022-10-05T04:49:09.435Z,11.09
2022-10-05T04:53:04.384Z,11.11
2022-10-05T04:56:25.658Z,11.07
2022-10-05T04:59:51.563Z,11.09
2022-10-05T05:03:25.544Z,11.07
2022-10-05T05:06:50.522Z,11.03
2022-10-05T05:10:03.138Z,11.09
2022-10-05T05:13:44.625Z,11.04
2022-10-05T05:17:04.545Z,11.05
2022-10-05T05:20:46.617Z,11.01
2022-10-05T05:24:06.893Z,10.99
2022-10-05T05:27:47.669Z,10.98
2022-10-05T05:31:00.623Z,10.93
2022-10-05T05:34:46.763Z,10.93
2022-10-05T05:38:05.968Z,10.93
2022-10-05T05:41:12.096Z,10.96
2022-10-05T05:44:18.180Z,10.99
2022-10-05T05:47:35.499Z,11.01
2022-10-05T05:50:55.147Z,10.97
2022-10-05T05:54:20.737Z,10.96
2022-10-05T05:57:30.126Z,11.02
2022-10-05T06:00:41.263Z,11.03
2022-10-05T06:03:49.115Z,11.00
2022-10-05T06:06:54.335Z,10.99
2022-10-05T06:10:04.403Z,11.00
2022-10-05T06:13:24.385Z,11.00
2022-10-05T06:16:33.845Z,10.94
2022-10-05T06:19:40.092Z,10.98
2022-10-05T06:22:47.442Z,11.00
2022-10-05T06:26:17.665Z,11.04
2022-10-05T06:29:25.744Z,11.08
2022-10-05T06:32:50.359Z,11.04
2022-10-05T06:36:32.942Z,11.08
2022-10-05T06:39:44.796Z,11.12
2022-10-05T06:43:00.535Z,11.21
2022-10-05T06:46:26.343Z,11.26
2022-10-05T06:49:52.049Z,11.30
2022-10-05T06:53:32.372Z,11.34
2022-10-05T06:56:47.960Z,11.41
2022-10-05T07:00:01.996Z,11.36
2022-10-05T07:03:32.453Z,11.42
2022-10-05T07:06:42.015Z,11.53
2022-10-05T07:10:23.459Z,11.53
2022-10-05T07:13:57.567Z,11.47
2022-10-05T07:17:09.572Z,11.51
2022-10-05T07:20:38.191Z,11.55
2022-10-05T07:23:46.135Z,11.57
2022-10-05T07:27:12.279Z,11.59
2022-10-05T07:30:15.405Z,11.71
2022-10-05T07:33:24.281Z,11.75
2022-10-05T07:36:59.150Z,11.80
2022-10-05T07:40:21.006Z,11.86
2022-10-05T07:43:57.916Z,11.90
2022-10-05T07:47:30.924Z,11.97
2022-10-05T07:50:43.121Z,11.99
2022-10-05T07:53:59.360Z,12.07
2022-10-05T07:57:33.355Z,12.16
2022-10-05T08:01:00.941Z,12.26
2022-10-05T08:04:24.859Z,12.31
2022-10-05T08:07:30.299Z,12.36
2022-10-05T08:11:07.047Z,12.43
2022-10-05T08:14:28.099Z,12.53
2022-10-05T08:17:59.276Z,12.69
2022-10-05T08:21:05.877Z,12.75
2022-10-05T08:24:36.697Z,12.81
2022-10-05T08:27:50.157Z,12.93
2022-10-05T08:30:55.742Z,13.09
2022-10-05T08:34:20.382Z,13.16
2022-10-05T08:37:30.834Z,13.29
2022-10-05T08:40:42.998Z,13.33
2022-10-05T08:44:12.903Z,13.35
2022-10-05T08:47:33.890Z,13.33
2022-10-05T08:50:55.501Z,13.29
2022-10-05T08:54:36.863Z,13.27
2022-10-05T08:57:51.625Z,13.25
2022-10-05T09:00:58.077Z,13.24
2022-10-05T09:04:16.953Z,13.28
2022-10-05T09:07:40.073Z,13.37
2022-10-05T09:11:00.949Z,13.49
2022-10-05T09:14:06.915Z,13.65
2022-10-05T09:17:46.298Z,13.83
2022-10-05T09:20:55.589Z,13.98
2022-10-05T09:24:19.397Z,14.12
2022-10-05T09:27:53.942Z,14.24
2022-10-05T09:31:07.683Z,14.34
2022-10-05T09:34:37.867Z,14.46
2022-10-05T09:37:53.665Z,14.53
2022-10-05T09:41:16.860Z,14.57
2022-10-05T09:44:41.533Z,14.63
2022-10-05T09:48:03.287Z,14.72
2022-10-05T09:51:15.049Z,14.83
2022-10-05T09:54:38.151Z,14.93
2022-10-05T09:58:03.645Z,15.03
2022-10-05T10:01:34.318Z,15.15
2022-10-05T10:05:05.835Z,15.26
2022-10-05T10:08:32.452Z,15.37
2022-10-05T10:11:53.155Z,15.44
2022-10-05T10:15:11.188Z,15.52
2022-10-05T10:18:46.564Z,15.53
2022-10-05T10:22:08.121Z,15.51
2022-10-05T10:25:40.833Z,15.52
2022-10-05T10:29:21.310Z,15.53
2022-10-05T10:32:48.999Z,15.54
2022-10-05T10:36:03.102Z,15.63
2022-10-05T10:39:24.352Z,15.73
2022-10-05T10:42:37.741Z,15.81
2022-10-05T10:45:56.867Z,15.89
2022-10-05T10:49:16.257Z,15.99
2022-10-05T10:52:34.417Z,16.13
2022-10-05T10:55:46.015Z,16.32
2022-10-05T10:58:58.251Z,16.47
2022-10-05T11:02:27.297Z,16.67
2022-10-05T11:05:34.770Z,16.84
2022-10-05T11:09:09.519Z,16.97
2022-10-05T11:12:49.979Z,17.11
2022-10-05T11:16:41.913Z,17.22
2022-10-05T11:20:15.295Z,17.33
2022-10-05T11:23:38.952Z,17.32
2022-10-05T11:27:16.306Z,17.42
2022-10-05T11:30:51.239Z,17.51
2022-10-05T11:34:18.975Z,17.63
2022-10-05T11:37:56.041Z,17.63
2022-10-05T11:41:20.010Z,17.64
2022-10-05T11:44:38.541Z,17.65
2022-10-05T11:48:20.707Z,17.66
2022-10-05T11:51:34.386Z,17.60
2022-10-05T11:55:09.733Z,17.59
2022-10-05T11:58:26.505Z,17.63
2022-10-05T12:01:39.746Z,17.70
2022-10-05T12:04:54.600Z,17.79
2022-10-05T12:08:10.860Z,17.82
2022-10-05T12:11:34.843Z,17.84
2022-10-05T12:14:59.293Z,17.76
2022-10-05T12:18:25.726Z,17.71
2022-10-05T12:21:50.283Z,17.72
2022-10-05T12:25:22.403Z,17.67
2022-10-05T12:28:38.024Z,17.68
2022-10-05T12:31:52.858Z,17.71
2022-10-05T12:35:11.976Z,17.74
2022-10-05T12:38:30.726Z,17.76
2022-10-05T12:41:56.589Z,17.75
2022-10-05T12:45:29.916Z,17.72
2022-10-05T12:48:53.264Z,17.68
2022-10-05T12:52:00.436Z,17.66
2022-10-05T12:55:03.321Z,17.67
2022-10-05T12:58:24.123Z,17.67
2022-10-05T13:01:39.394Z,17.66
2022-10-05T13:05:03.688Z,17.68
2022-10-05T13:08:12.977Z,17.67
2022-10-05T13:11:27.255Z,17.72
2022-10-05T13:15:03.778Z,17.72
2022-10-05T13:18:28.101Z,17.75
2022-10-05T13:21:56.935Z,17.80
2022-10-05T13:25:39.176Z,17.84
2022-10-05T13:28:59.154Z,17.89
2022-10-05T13:32:15.344Z,17.97
2022-10-05T13:35:24.208Z,17.96
2022-10-05T13:39:01.589Z,17.97
2022-10-05T13:42:10.342Z,17.94
2022-10-05T13:45:20.229Z,18.00
2022-10-05T13:48:46.555Z,18.05
2022-10-05T13:51:59.197Z,18.10
2022-10-05T13:55:15.697Z,18.15
2022-10-05T13:58:45.230Z,18.22
2022-10-05T14:02:00.429Z,18.35
2022-10-05T14:05:15.311Z,18.30
2022-10-05T14:08:18.848Z,18.28
2022-10-05T14:11:33.558Z,18.26
2022-10-05T14:14:46.885Z,18.27
2022-10-05T14:17:52.902Z,18.34
2022-10-05T14:21:03.445Z,18.41
2022-10-05T14:24:47.537Z,18.35
2022-10-05T14:28:01.291Z,18.16
2022-10-05T14:31:27.707Z,17.99
2022-10-05T14:34:39.728Z,17.88
2022-10-05T14:37:59.001Z,17.75
2022-10-05T14:41:20.395Z,17.62
2022-10-05T14:48:00.478Z,17.54
2022-10-05T14:51:11.830Z,17.44
2022-10-05T14:54:41.566Z,17.39
2022-10-05T14:58:03.724Z,17.36
2022-10-05T15:01:31.659Z,17.39
2022-10-05T15:04:43.139Z,17.45
2022-10-05T15:07:49.500Z,17.62
2022-10-05T15:10:56.020Z,17.72
2022-10-05T15:14:00.104Z,17.69
2022-10-05T15:17:11.620Z,17.60
2022-10-05T15:20:25.869Z,17.55
2022-10-05T15:23:49.284Z,17.54
2022-10-05T15:26:56.708Z,17.51
2022-10-05T15:30:18.285Z,17.51
2022-10-05T15:33:30.914Z,17.49
2022-10-05T15:36:48.928Z,17.50
2022-10-05T15:40:14.958Z,17.40
2022-10-05T15:43:21.152Z,17.36
2022-10-05T15:46:36.178Z,17.24
2022-10-05T15:49:59.966Z,17.14
2022-10-05T15:53:16.035Z,17.05
2022-10-05T15:56:36.741Z,16.97
2022-10-05T16:00:00.770Z,16.92
2022-10-05T16:03:27.715Z,16.86
2022-10-05T16:07:01.873Z,16.76
2022-10-05T16:10:19.207Z,16.67
2022-10-05T16:13:38.664Z,16.62
2022-10-05T16:17:02.676Z,16.59
2022-10-05T16:20:25.321Z,16.54
2022-10-05T16:24:17.001Z,16.51
2022-10-05T16:27:48.535Z,16.43
2022-10-05T16:31:21.142Z,16.41
2022-10-05T16:34:39.985Z,16.36
2022-10-05T16:38:33.283Z,16.34
2022-10-05T16:41:49.323Z,16.28
2022-10-05T16:45:29.909Z,16.18
2022-10-05T16:48:56.573Z,16.09
2022-10-05T16:52:07.573Z,16.04
2022-10-05T16:55:23.514Z,15.96
2022-10-05T16:58:34.635Z,16.00
2022-10-05T17:02:15.362Z,15.95
2022-10-05T17:05:47.293Z,15.84
2022-10-05T17:09:12.155Z,15.81
2022-10-05T17:12:18.029Z,15.78
2022-10-05T17:15:53.784Z,15.73
2022-10-05T17:19:32.935Z,15.65
2022-10-05T17:22:52.852Z,15.64
2022-10-05T17:26:12.639Z,15.64
2022-10-05T17:29:52.503Z,15.63
2022-10-05T17:33:00.369Z,15.61
2022-10-05T17:36:04.924Z,15.54
2022-10-05T17:39:21.972Z,15.52
2022-10-05T17:42:46.490Z,15.49
2022-10-05T17:45:53.311Z,15.44
2022-10-05T17:48:56.261Z,15.40
2022-10-05T17:52:20.583Z,15.36
2022-10-05T17:55:46.155Z,15.36
2022-10-05T17:58:54.766Z,15.30
2022-10-05T18:02:23.368Z,15.31
2022-10-05T18:05:29.428Z,15.27
2022-10-05T18:08:38.906Z,15.28
2022-10-05T18:11:44.081Z,15.27
2022-10-05T18:15:00.004Z,15.25
2022-10-05T18:18:35.078Z,15.24
2022-10-05T18:21:40.215Z,15.19
2022-10-05T18:25:14.334Z,15.17
2022-10-05T18:28:43.421Z,15.09
2022-10-05T18:32:03.920Z,15.10
2022-10-05T18:35:30.592Z,15.06
2022-10-05T18:38:54.043Z,15.06
2022-10-05T18:42:05.962Z,15.00
2022-10-05T18:45:49.451Z,15.03
2022-10-05T18:49:21.277Z,15.00
2022-10-05T18:52:46.602Z,15.04
2022-10-05T18:56:17.639Z,15.07
2022-10-05T18:59:25.368Z,15.07
2022-10-05T19:02:45.775Z,15.12
2022-10-05T19:06:13.054Z,15.10
2022-10-05T19:09:33.660Z,15.11
2022-10-05T19:13:21.186Z,15.08
2022-10-05T19:16:47.782Z,15.06
2022-10-05T19:20:34.798Z,15.00
2022-10-05T19:24:03.314Z,14.98
2022-10-05T19:27:20.604Z,14.97
2022-10-05T19:30:50.721Z,14.96
2022-10-05T19:34:19.869Z,14.96
2022-10-05T19:37:41.159Z,14.93
2022-10-05T19:41:09.932Z,14.99
2022-10-05T19:44:18.997Z,15.05
2022-10-05T19:47:55.248Z,15.07
2022-10-05T19:51:06.465Z,15.00
2022-10-05T19:54:25.816Z,15.06
2022-10-05T19:57:36.297Z,15.10
2022-10-05T20:00:40.301Z,15.13
2022-10-05T20:03:49.085Z,15.10
2022-10-05T20:06:53.856Z,15.07
2022-10-05T20:10:15.381Z,15.09
2022-10-05T20:13:23.632Z,15.13
2022-10-05T20:16:55.511Z,15.16
2022-10-05T20:20:23.567Z,15.19
2022-10-05T20:23:29.616Z,15.21
2022-10-05T20:27:06.230Z,15.24
2022-10-05T20:30:13.178Z,15.24
2022-10-05T20:33:16.146Z,15.27
2022-10-05T20:36:19.116Z,15.31
2022-10-05T20:39:22.103Z,15.30
2022-10-05T20:42:26.971Z,15.31
2022-10-05T20:45:30.043Z,15.30
2022-10-05T20:48:33.357Z,15.29
2022-10-05T20:51:40.491Z,15.33
2022-10-05T20:54:43.426Z,15.36
2022-10-05T20:57:47.520Z,15.39
2022-10-05T21:01:09.068Z,15.38
2022-10-05T21:04:11.921Z,15.39
2022-10-05T21:07:16.377Z,15.38
2022-10-05T21:10:19.191Z,15.37
2022-10-05T21:13:21.992Z,15.38
2022-10-05T21:16:25.101Z,15.40
2022-10-05T21:19:29.386Z,15.38
2022-10-05T21:22:32.172Z,15.38
2022-10-05T21:25:35.238Z,15.38
2022-10-05T21:28:39.640Z,15.40
2022-10-05T21:31:42.920Z,15.40
2022-10-05T21:34:45.782Z,15.42
2022-10-05T21:37:48.677Z,15.41
2022-10-05T21:40:51.691Z,15.39
2022-10-05T21:43:54.821Z,15.39
2022-10-05T21:46:57.886Z,15.42
2022-10-05T21:50:03.739Z,15.44
2022-10-05T21:53:09.186Z,15.45
2022-10-05T21:56:17.098Z,15.42
2022-10-05T21:59:24.173Z,15.43
2022-10-05T22:02:27.117Z,15.45
2022-10-05T22:05:32.062Z,15.46
2022-10-05T22:08:35.730Z,15.49
2022-10-05T22:11:38.787Z,15.51
2022-10-05T22:14:41.915Z,15.52
2022-10-05T22:17:46.283Z,15.52
2022-10-05T22:20:49.849Z,15.52
2022-10-05T22:23:52.852Z,15.51
2022-10-05T22:26:55.986Z,15.51
2022-10-05T22:29:59.313Z,15.50
2022-10-05T22:33:02.180Z,15.53
2022-10-05T22:36:06.400Z,15.53
2022-10-05T22:39:09.234Z,15.52
2022-10-05T22:42:12.294Z,15.50
2022-10-05T22:45:15.286Z,15.52
2022-10-05T22:48:18.980Z,15.54
2022-10-05T22:51:21.874Z,15.56
2022-10-05T22:54:29.325Z,15.57
2022-10-05T22:57:40.157Z,15.54
2022-10-05T23:00:59.055Z,15.50
2022-10-05T23:04:02.679Z,15.56
2022-10-05T23:07:06.890Z,15.54
2022-10-05T23:10:12.163Z,15.58
2022-10-05T23:13:15.453Z,15.56
2022-10-05T23:16:21.647Z,15.55
2022-10-05T23:19:24.603Z,15.55
2022-10-05T23:22:27.509Z,15.56
2022-10-05T23:25:31.806Z,15.57
2022-10-05T23:28:34.833Z,15.59
2022-10-05T23:31:37.918Z,15.57
2022-10-05T23:34:40.756Z,15.61
2022-10-05T23:37:45.023Z,15.62
2022-10-05T23:40:47.900Z,15.64
2022-10-05T23:43:50.814Z,15.63
2022-10-05T23:46:54.213Z,15.59
2022-10-05T23:49:57.152Z,15.59
2022-10-05T23:52:59.976Z,15.61
2022-10-05T23:56:04.017Z,15.63
2022-10-05T23:59:06.921Z,15.63
